sensor_id;sensor_type;location;lat;lon;timestamp;noise_LAeq;noise_LA_min;noise_LA_max;noise_LA01;noise_LA95
49568;Laerm;35474;51.032;6.998;2023-06-22T00:00:35;42.53;39.81;45.97;;
49568;Laerm;35474;51.032;6.998;2023-06-22T00:03:02;43.20;40.62;46.93;;
49568;Laerm;35474;51.032;6.998;2023-06-22T00:05:31;50.84;39.34;66.85;;
49568;Laerm;35474;51.032;6.998;2023-06-22T00:08:03;42.53;40.53;44.35;;
49568;Laerm;35474;51.032;6.998;2023-06-22T00:10:36;42.28;39.81;43.99;;
49568;Laerm;35474;51.032;6.998;2023-06-22T00:13:03;42.53;39.81;53.26;;
49568;Laerm;35474;51.032;6.998;2023-06-22T00:15:30;42.06;39.58;43.90;;
49568;Laerm;35474;51.032;6.998;2023-06-22T00:17:57;42.33;39.92;44.07;;
49568;Laerm;35474;51.032;6.998;2023-06-22T00:20:26;42.50;39.46;44.51;;
49568;Laerm;35474;51.032;6.998;2023-06-22T00:22:58;45.63;39.99;59.51;;
49568;Laerm;35474;51.032;6.998;2023-06-22T00:25:25;42.13;38.81;43.86;;
49568;Laerm;35474;51.032;6.998;2023-06-22T00:27:56;41.90;37.88;43.72;;
49568;Laerm;35474;51.032;6.998;2023-06-22T00:30:23;41.84;39.46;43.58;;
49568;Laerm;35474;51.032;6.998;2023-06-22T00:32:49;48.80;40.03;63.57;;
49568;Laerm;35474;51.032;6.998;2023-06-22T00:35:16;42.15;38.52;43.90;;
49568;Laerm;35474;51.032;6.998;2023-06-22T00:37:48;42.49;39.81;44.11;;
49568;Laerm;35474;51.032;6.998;2023-06-22T00:40:18;42.43;39.81;43.99;;
49568;Laerm;35474;51.032;6.998;2023-06-22T00:42:48;42.47;39.78;44.19;;
49568;Laerm;35474;51.032;6.998;2023-06-22T00:45:15;42.34;39.34;43.99;;
49568;Laerm;35474;51.032;6.998;2023-06-22T00:47:42;42.09;39.58;44.31;;
49568;Laerm;35474;51.032;6.998;2023-06-22T00:50:14;42.58;39.46;50.90;;
49568;Laerm;35474;51.032;6.998;2023-06-22T00:52:45;42.57;40.03;44.83;;
49568;Laerm;35474;51.032;6.998;2023-06-22T00:55:12;44.17;40.13;53.76;;
49568;Laerm;35474;51.032;6.998;2023-06-22T00:57:40;44.03;39.46;53.64;;
49568;Laerm;35474;51.032;6.998;2023-06-22T01:00:07;47.28;40.13;63.50;;
49568;Laerm;35474;51.032;6.998;2023-06-22T01:02:36;41.98;39.46;45.20;;
49568;Laerm;35474;51.032;6.998;2023-06-22T01:05:05;42.38;39.08;45.66;;
49568;Laerm;35474;51.032;6.998;2023-06-22T01:07:42;41.96;39.70;43.49;;
49568;Laerm;35474;51.032;6.998;2023-06-22T01:10:31;42.08;39.21;43.90;;
49568;Laerm;35474;51.032;6.998;2023-06-22T01:13:07;42.42;39.81;44.27;;
49568;Laerm;35474;51.032;6.998;2023-06-22T01:15:44;42.45;40.43;43.99;;
49568;Laerm;35474;51.032;6.998;2023-06-22T01:18:14;42.26;39.70;44.07;;
49568;Laerm;35474;51.032;6.998;2023-06-22T01:20:45;42.31;39.81;44.07;;
49568;Laerm;35474;51.032;6.998;2023-06-22T01:26:02;42.57;40.23;49.07;;
49568;Laerm;35474;51.032;6.998;2023-06-22T01:28:50;42.95;40.80;46.84;;
49568;Laerm;35474;51.032;6.998;2023-06-22T01:31:24;42.52;40.13;44.92;;
49568;Laerm;35474;51.032;6.998;2023-06-22T01:34:11;42.74;39.92;44.76;;
49568;Laerm;35474;51.032;6.998;2023-06-22T01:36:39;42.11;39.58;44.23;;
49568;Laerm;35474;51.032;6.998;2023-06-22T01:39:07;42.27;39.92;43.94;;
49568;Laerm;35474;51.032;6.998;2023-06-22T01:41:38;42.47;40.03;44.23;;
49568;Laerm;35474;51.032;6.998;2023-06-22T01:44:07;42.93;40.43;50.50;;
49568;Laerm;35474;51.032;6.998;2023-06-22T01:46:35;42.96;40.13;45.66;;
49568;Laerm;35474;51.032;6.998;2023-06-22T01:49:03;42.33;39.92;44.07;;
49568;Laerm;35474;51.032;6.998;2023-06-22T01:51:31;48.44;40.03;62.99;;
49568;Laerm;35474;51.032;6.998;2023-06-22T01:54:01;42.54;39.70;57.42;;
49568;Laerm;35474;51.032;6.998;2023-06-22T01:56:28;42.69;39.70;44.47;;
49568;Laerm;35474;51.032;6.998;2023-06-22T01:59:03;43.85;39.08;58.93;;
49568;Laerm;35474;51.032;6.998;2023-06-22T02:01:44;42.85;39.70;50.11;;
49568;Laerm;35474;51.032;6.998;2023-06-22T02:04:17;42.42;39.81;50.37;;
49568;Laerm;35474;51.032;6.998;2023-06-22T02:06:49;42.53;40.03;52.59;;
49568;Laerm;35474;51.032;6.998;2023-06-22T02:09:18;42.68;40.33;52.89;;
49568;Laerm;35474;51.032;6.998;2023-06-22T02:11:50;48.31;40.43;62.45;;
49568;Laerm;35474;51.032;6.998;2023-06-22T02:14:21;43.39;39.58;51.58;;
49568;Laerm;35474;51.032;6.998;2023-06-22T02:16:50;43.18;40.53;51.18;;
49568;Laerm;35474;51.032;6.998;2023-06-22T02:19:22;42.68;40.33;47.93;;
49568;Laerm;35474;51.032;6.998;2023-06-22T02:21:49;45.51;40.62;57.06;;
49568;Laerm;35474;51.032;6.998;2023-06-22T02:24:16;50.09;41.14;63.65;;
49568;Laerm;35474;51.032;6.998;2023-06-22T02:26:43;49.87;40.62;65.84;;
49568;Laerm;35474;51.032;6.998;2023-06-22T02:29:12;45.92;40.98;58.80;;
49568;Laerm;35474;51.032;6.998;2023-06-22T02:31:38;44.82;38.81;54.51;;
49568;Laerm;35474;51.032;6.998;2023-06-22T02:34:06;42.97;39.81;48.73;;
49568;Laerm;35474;51.032;6.998;2023-06-22T02:36:33;43.45;40.13;49.59;;
49568;Laerm;35474;51.032;6.998;2023-06-22T02:39:00;46.14;40.89;57.27;;
49568;Laerm;35474;51.032;6.998;2023-06-22T02:41:34;43.61;41.14;54.05;;
49568;Laerm;35474;51.032;6.998;2023-06-22T02:44:00;50.00;41.61;65.00;;
49568;Laerm;35474;51.032;6.998;2023-06-22T02:46:31;43.61;40.80;53.45;;
49568;Laerm;35474;51.032;6.998;2023-06-22T02:48:58;43.35;41.06;49.50;;
49568;Laerm;35474;51.032;6.998;2023-06-22T02:51:24;48.85;40.89;61.55;;
49568;Laerm;35474;51.032;6.998;2023-06-22T02:53:51;50.01;41.22;65.49;;
49568;Laerm;35474;51.032;6.998;2023-06-22T02:56:23;51.16;41.22;63.14;;
49568;Laerm;35474;51.032;6.998;2023-06-22T02:58:51;43.52;41.26;52.52;;
49568;Laerm;35474;51.032;6.998;2023-06-22T03:01:18;47.95;41.14;60.43;;
49568;Laerm;35474;51.032;6.998;2023-06-22T03:03:51;44.90;41.22;57.86;;
49568;Laerm;35474;51.032;6.998;2023-06-22T03:06:17;43.22;41.22;47.04;;
49568;Laerm;35474;51.032;6.998;2023-06-22T03:08:50;52.35;40.80;64.80;;
49568;Laerm;35474;51.032;6.998;2023-06-22T03:11:17;43.91;41.61;56.16;;
49568;Laerm;35474;51.032;6.998;2023-06-22T03:13:43;45.49;41.22;57.08;;
49568;Laerm;35474;51.032;6.998;2023-06-22T03:16:12;50.65;41.38;60.93;;
49568;Laerm;35474;51.032;6.998;2023-06-22T03:18:39;49.73;41.61;66.79;;
49568;Laerm;35474;51.032;6.998;2023-06-22T03:21:06;51.90;42.06;67.23;;
49568;Laerm;35474;51.032;6.998;2023-06-22T03:23:33;54.74;42.53;65.16;;
49568;Laerm;35474;51.032;6.998;2023-06-22T03:26:01;53.27;41.89;67.06;;
49568;Laerm;35474;51.032;6.998;2023-06-22T03:28:30;44.12;41.82;51.66;;
49568;Laerm;35474;51.032;6.998;2023-06-22T03:30:59;45.35;41.46;58.61;;
49568;Laerm;35474;51.032;6.998;2023-06-22T03:33:26;46.98;41.75;62.80;;
49568;Laerm;35474;51.032;6.998;2023-06-22T03:35:53;52.47;41.75;63.29;;
49568;Laerm;35474;51.032;6.998;2023-06-22T03:38:20;52.60;42.16;66.50;;
49568;Laerm;35474;51.032;6.998;2023-06-22T03:40:53;53.33;42.53;65.69;;
49568;Laerm;35474;51.032;6.998;2023-06-22T03:43:20;56.35;43.24;71.24;;
49568;Laerm;35474;51.032;6.998;2023-06-22T03:45:49;50.60;42.98;62.65;;
49568;Laerm;35474;51.032;6.998;2023-06-22T03:48:17;49.75;43.14;72.72;;
49568;Laerm;35474;51.032;6.998;2023-06-22T03:50:44;49.81;42.71;62.40;;
49568;Laerm;35474;51.032;6.998;2023-06-22T03:53:11;54.94;42.47;72.33;;
49568;Laerm;35474;51.032;6.998;2023-06-22T03:55:47;55.17;43.33;70.58;;
49568;Laerm;35474;51.032;6.998;2023-06-22T03:58:15;51.99;43.04;66.34;;
49568;Laerm;35474;51.032;6.998;2023-06-22T04:00:41;53.25;43.39;64.78;;
49568;Laerm;35474;51.032;6.998;2023-06-22T04:03:11;57.28;43.54;66.88;;
49568;Laerm;35474;51.032;6.998;2023-06-22T04:05:39;54.77;43.90;65.74;;
49568;Laerm;35474;51.032;6.998;2023-06-22T04:08:06;59.59;44.38;70.91;;
49568;Laerm;35474;51.032;6.998;2023-06-22T04:10:35;55.54;43.72;68.53;;
49568;Laerm;35474;51.032;6.998;2023-06-22T04:13:05;56.39;44.27;66.00;;
49568;Laerm;35474;51.032;6.998;2023-06-22T04:15:31;56.57;45.23;66.90;;
49568;Laerm;35474;51.032;6.998;2023-06-22T04:17:58;60.45;43.77;71.39;;
49568;Laerm;35474;51.032;6.998;2023-06-22T04:20:25;59.12;44.69;71.80;;
49568;Laerm;35474;51.032;6.998;2023-06-22T04:22:55;59.60;46.48;67.86;;
49568;Laerm;35474;51.032;6.998;2023-06-22T04:25:22;59.89;45.07;67.41;;
49568;Laerm;35474;51.032;6.998;2023-06-22T04:27:49;58.95;46.40;72.47;;
49568;Laerm;35474;51.032;6.998;2023-06-22T04:30:16;60.38;44.76;78.65;;
49568;Laerm;35474;51.032;6.998;2023-06-22T04:32:44;58.78;43.81;69.78;;
49568;Laerm;35474;51.032;6.998;2023-06-22T04:35:11;59.57;44.23;69.04;;
49568;Laerm;35474;51.032;6.998;2023-06-22T04:37:38;58.47;43.44;69.19;;
49568;Laerm;35474;51.032;6.998;2023-06-22T04:40:06;61.46;45.63;74.73;;
49568;Laerm;35474;51.032;6.998;2023-06-22T04:42:34;59.97;44.80;68.18;;
49568;Laerm;35474;51.032;6.998;2023-06-22T04:45:03;60.29;48.16;66.70;;
49568;Laerm;35474;51.032;6.998;2023-06-22T04:47:30;62.49;47.54;71.79;;
49568;Laerm;35474;51.032;6.998;2023-06-22T04:49:58;62.98;53.42;71.29;;
49568;Laerm;35474;51.032;6.998;2023-06-22T04:52:24;60.89;46.95;67.97;;
49568;Laerm;35474;51.032;6.998;2023-06-22T04:54:51;59.45;44.31;66.33;;
49568;Laerm;35474;51.032;6.998;2023-06-22T04:57:21;60.76;43.77;74.55;;
49568;Laerm;35474;51.032;6.998;2023-06-22T05:00:00;61.04;42.82;84.65;;
49568;Laerm;35474;51.032;6.998;2023-06-22T05:02:40;58.12;43.63;70.95;;
49568;Laerm;35474;51.032;6.998;2023-06-22T05:05:08;59.29;43.24;79.97;;
49568;Laerm;35474;51.032;6.998;2023-06-22T05:07:35;63.60;51.55;88.65;;
49568;Laerm;35474;51.032;6.998;2023-06-22T05:10:06;62.01;51.16;80.34;;
49568;Laerm;35474;51.032;6.998;2023-06-22T05:12:33;63.33;52.45;84.59;;
49568;Laerm;35474;51.032;6.998;2023-06-22T05:14:59;61.61;49.60;76.74;;
49568;Laerm;35474;51.032;6.998;2023-06-22T05:17:27;64.22;46.25;78.90;;
49568;Laerm;35474;51.032;6.998;2023-06-22T05:19:54;61.99;44.66;70.40;;
49568;Laerm;35474;51.032;6.998;2023-06-22T05:22:21;60.18;45.75;75.14;;
49568;Laerm;35474;51.032;6.998;2023-06-22T05:24:48;59.63;42.22;68.40;;
49568;Laerm;35474;51.032;6.998;2023-06-22T05:27:22;61.13;41.68;70.14;;
49568;Laerm;35474;51.032;6.998;2023-06-22T05:29:49;60.56;42.47;67.34;;
49568;Laerm;35474;51.032;6.998;2023-06-22T05:32:15;56.56;42.35;65.39;;
49568;Laerm;35474;51.032;6.998;2023-06-22T05:34:45;60.42;44.65;70.91;;
49568;Laerm;35474;51.032;6.998;2023-06-22T05:37:12;65.15;42.03;79.95;;
49568;Laerm;35474;51.032;6.998;2023-06-22T05:39:39;60.92;41.75;67.59;;
49568;Laerm;35474;51.032;6.998;2023-06-22T05:45:06;60.13;43.39;66.93;;
49568;Laerm;35474;51.032;6.998;2023-06-22T05:47:36;58.55;48.85;67.67;;
49568;Laerm;35474;51.032;6.998;2023-06-22T05:50:08;58.42;46.95;67.35;;
49568;Laerm;35474;51.032;6.998;2023-06-22T05:52:39;60.95;46.28;68.40;;
49568;Laerm;35474;51.032;6.998;2023-06-22T05:55:08;61.05;44.62;68.07;;
49568;Laerm;35474;51.032;6.998;2023-06-22T05:57:40;57.39;44.19;66.25;;
49568;Laerm;35474;51.032;6.998;2023-06-22T06:00:07;59.39;43.49;72.22;;
49568;Laerm;35474;51.032;6.998;2023-06-22T06:02:37;71.26;43.94;92.32;;
49568;Laerm;35474;51.032;6.998;2023-06-22T06:05:13;65.45;43.14;87.63;;
49568;Laerm;35474;51.032;6.998;2023-06-22T06:07:50;60.24;43.09;70.28;;
49568;Laerm;35474;51.032;6.998;2023-06-22T06:10:19;58.47;43.09;77.00;;
49568;Laerm;35474;51.032;6.998;2023-06-22T06:12:50;63.65;41.30;82.70;;
49568;Laerm;35474;51.032;6.998;2023-06-22T06:15:18;56.67;40.98;64.96;;
49568;Laerm;35474;51.032;6.998;2023-06-22T06:17:57;61.10;43.58;70.56;;
49568;Laerm;35474;51.032;6.998;2023-06-22T06:20:25;57.63;44.35;65.43;;
49568;Laerm;35474;51.032;6.998;2023-06-22T06:22:56;63.61;43.58;72.78;;
49568;Laerm;35474;51.032;6.998;2023-06-22T06:25:27;63.06;52.19;70.99;;
49568;Laerm;35474;51.032;6.998;2023-06-22T06:27:55;61.46;42.47;69.77;;
49568;Laerm;35474;51.032;6.998;2023-06-22T06:32:37;60.79;47.26;73.49;;
49568;Laerm;35474;51.032;6.998;2023-06-22T06:35:09;61.29;45.97;71.81;;
49568;Laerm;35474;51.032;6.998;2023-06-22T06:37:47;61.78;46.40;68.39;;
49568;Laerm;35474;51.032;6.998;2023-06-22T06:40:18;63.20;47.86;83.48;;
49568;Laerm;35474;51.032;6.998;2023-06-22T06:42:49;61.73;43.86;75.87;;
49568;Laerm;35474;51.032;6.998;2023-06-22T06:45:22;60.28;46.82;67.67;;
49568;Laerm;35474;51.032;6.998;2023-06-22T06:47:51;61.62;47.68;69.07;;
49568;Laerm;35474;51.032;6.998;2023-06-22T06:50:20;62.08;48.52;68.24;;
49568;Laerm;35474;51.032;6.998;2023-06-22T06:52:48;61.07;50.69;66.77;;
49568;Laerm;35474;51.032;6.998;2023-06-22T06:55:17;61.35;45.04;72.72;;
49568;Laerm;35474;51.032;6.998;2023-06-22T06:57:48;60.47;47.55;69.99;;
49568;Laerm;35474;51.032;6.998;2023-06-22T07:00:17;60.20;45.33;69.58;;
49568;Laerm;35474;51.032;6.998;2023-06-22T07:02:45;59.77;48.13;68.45;;
49568;Laerm;35474;51.032;6.998;2023-06-22T07:05:14;61.46;46.40;73.54;;
49568;Laerm;35474;51.032;6.998;2023-06-22T07:07:47;60.96;42.22;70.60;;
49568;Laerm;35474;51.032;6.998;2023-06-22T07:10:22;59.43;42.76;68.01;;
49568;Laerm;35474;51.032;6.998;2023-06-22T07:12:55;59.94;41.22;73.60;;
49568;Laerm;35474;51.032;6.998;2023-06-22T07:15:24;61.65;48.90;71.68;;
49568;Laerm;35474;51.032;6.998;2023-06-22T07:17:54;60.99;45.51;70.95;;
49568;Laerm;35474;51.032;6.998;2023-06-22T07:20:24;60.67;52.48;69.18;;
49568;Laerm;35474;51.032;6.998;2023-06-22T07:22:57;60.10;44.54;67.44;;
49568;Laerm;35474;51.032;6.998;2023-06-22T07:25:28;60.79;43.90;67.26;;
49568;Laerm;35474;51.032;6.998;2023-06-22T07:28:06;60.70;44.15;71.15;;
49568;Laerm;35474;51.032;6.998;2023-06-22T07:30:43;60.47;44.69;67.56;;
49568;Laerm;35474;51.032;6.998;2023-06-22T07:33:12;59.85;42.82;71.78;;
49568;Laerm;35474;51.032;6.998;2023-06-22T07:35:52;58.56;42.76;65.62;;
49568;Laerm;35474;51.032;6.998;2023-06-22T07:38:21;60.49;47.42;67.98;;
49568;Laerm;35474;51.032;6.998;2023-06-22T07:40:57;59.59;42.53;67.17;;
49568;Laerm;35474;51.032;6.998;2023-06-22T07:43:29;63.28;43.44;72.99;;
49568;Laerm;35474;51.032;6.998;2023-06-22T07:45:56;59.62;45.75;67.24;;
49568;Laerm;35474;51.032;6.998;2023-06-22T07:48:24;62.11;52.33;68.54;;
49568;Laerm;35474;51.032;6.998;2023-06-22T07:50:50;61.19;51.26;73.38;;
49568;Laerm;35474;51.032;6.998;2023-06-22T07:53:17;61.45;50.47;68.29;;
49568;Laerm;35474;51.032;6.998;2023-06-22T07:55:43;60.43;44.07;71.08;;
49568;Laerm;35474;51.032;6.998;2023-06-22T07:58:10;59.84;45.66;72.73;;
49568;Laerm;35474;51.032;6.998;2023-06-22T08:00:36;59.90;48.18;69.30;;
49568;Laerm;35474;51.032;6.998;2023-06-22T08:03:03;61.38;52.38;72.63;;
49568;Laerm;35474;51.032;6.998;2023-06-22T08:05:31;60.73;47.40;71.28;;
49568;Laerm;35474;51.032;6.998;2023-06-22T08:07:58;59.93;45.01;66.16;;
49568;Laerm;35474;51.032;6.998;2023-06-22T08:10:25;60.60;49.66;68.15;;
49568;Laerm;35474;51.032;6.998;2023-06-22T08:12:52;58.54;44.80;73.96;;
49568;Laerm;35474;51.032;6.998;2023-06-22T08:15:20;59.70;47.90;66.75;;
49568;Laerm;35474;51.032;6.998;2023-06-22T08:17:46;59.00;44.03;69.08;;
49568;Laerm;35474;51.032;6.998;2023-06-22T08:20:16;59.75;43.42;68.62;;
49568;Laerm;35474;51.032;6.998;2023-06-22T08:22:43;62.61;45.80;80.68;;
49568;Laerm;35474;51.032;6.998;2023-06-22T08:25:10;60.98;48.32;67.00;;
49568;Laerm;35474;51.032;6.998;2023-06-22T08:27:37;59.95;43.39;68.60;;
49568;Laerm;35474;51.032;6.998;2023-06-22T08:30:04;59.94;42.65;69.81;;
49568;Laerm;35474;51.032;6.998;2023-06-22T08:32:31;61.10;43.94;67.30;;
49568;Laerm;35474;51.032;6.998;2023-06-22T08:34:59;60.29;46.69;68.04;;
49568;Laerm;35474;51.032;6.998;2023-06-22T08:37:26;62.66;45.91;78.59;;
49568;Laerm;35474;51.032;6.998;2023-06-22T08:40:04;60.70;48.28;67.38;;
49568;Laerm;35474;51.032;6.998;2023-06-22T08:42:39;62.60;51.17;85.19;;
49568;Laerm;35474;51.032;6.998;2023-06-22T08:45:06;62.61;46.84;83.07;;
49568;Laerm;35474;51.032;6.998;2023-06-22T08:47:33;60.79;45.42;75.31;;
49568;Laerm;35474;51.032;6.998;2023-06-22T08:50:00;60.73;44.35;77.08;;
49568;Laerm;35474;51.032;6.998;2023-06-22T08:52:29;62.00;49.11;73.26;;
49568;Laerm;35474;51.032;6.998;2023-06-22T08:54:56;59.12;45.75;68.84;;
49568;Laerm;35474;51.032;6.998;2023-06-22T08:57:24;61.93;49.00;67.69;;
49568;Laerm;35474;51.032;6.998;2023-06-22T08:59:50;59.43;42.98;65.88;;
49568;Laerm;35474;51.032;6.998;2023-06-22T09:02:19;59.90;44.73;66.81;;
49568;Laerm;35474;51.032;6.998;2023-06-22T09:04:46;59.49;44.72;71.27;;
49568;Laerm;35474;51.032;6.998;2023-06-22T09:07:13;63.59;46.45;89.92;;
49568;Laerm;35474;51.032;6.998;2023-06-22T09:09:39;61.04;45.72;67.88;;
49568;Laerm;35474;51.032;6.998;2023-06-22T09:12:06;62.73;45.86;77.73;;
49568;Laerm;35474;51.032;6.998;2023-06-22T09:14:34;60.72;47.59;74.89;;
49568;Laerm;35474;51.032;6.998;2023-06-22T09:17:01;60.16;45.63;70.24;;
49568;Laerm;35474;51.032;6.998;2023-06-22T09:19:29;60.85;50.20;74.55;;
49568;Laerm;35474;51.032;6.998;2023-06-22T09:21:56;60.98;51.81;64.80;;
49568;Laerm;35474;51.032;6.998;2023-06-22T09:24:23;60.88;46.35;70.89;;
49568;Laerm;35474;51.032;6.998;2023-06-22T09:26:50;60.37;48.13;66.43;;
49568;Laerm;35474;51.032;6.998;2023-06-22T09:29:16;60.20;47.61;67.16;;
49568;Laerm;35474;51.032;6.998;2023-06-22T09:31:43;60.91;44.90;68.99;;
49568;Laerm;35474;51.032;6.998;2023-06-22T09:34:10;60.57;45.07;68.67;;
49568;Laerm;35474;51.032;6.998;2023-06-22T09:36:37;59.70;45.11;72.32;;
49568;Laerm;35474;51.032;6.998;2023-06-22T09:39:06;62.78;46.10;77.43;;
49568;Laerm;35474;51.032;6.998;2023-06-22T09:41:33;61.77;52.24;72.96;;
49568;Laerm;35474;51.032;6.998;2023-06-22T09:43:59;61.13;47.88;76.60;;
49568;Laerm;35474;51.032;6.998;2023-06-22T09:46:26;59.08;44.62;80.08;;
49568;Laerm;35474;51.032;6.998;2023-06-22T09:48:54;60.97;44.23;67.79;;
49568;Laerm;35474;51.032;6.998;2023-06-22T09:51:20;58.65;46.33;67.32;;
49568;Laerm;35474;51.032;6.998;2023-06-22T09:53:48;61.98;48.49;78.94;;
49568;Laerm;35474;51.032;6.998;2023-06-22T09:56:14;61.15;50.30;80.88;;
49568;Laerm;35474;51.032;6.998;2023-06-22T09:58:43;59.85;46.33;71.80;;
49568;Laerm;35474;51.032;6.998;2023-06-22T10:01:09;65.35;50.02;90.47;;
49568;Laerm;35474;51.032;6.998;2023-06-22T10:03:41;60.96;46.59;68.74;;
49568;Laerm;35474;51.032;6.998;2023-06-22T10:06:10;60.21;43.44;78.57;;
49568;Laerm;35474;51.032;6.998;2023-06-22T10:08:37;62.51;45.45;85.89;;
49568;Laerm;35474;51.032;6.998;2023-06-22T10:11:05;61.62;45.89;86.51;;
49568;Laerm;35474;51.032;6.998;2023-06-22T10:13:35;59.65;46.28;69.77;;
49568;Laerm;35474;51.032;6.998;2023-06-22T10:16:01;63.55;47.86;80.96;;
49568;Laerm;35474;51.032;6.998;2023-06-22T10:18:28;61.75;50.68;82.37;;
49568;Laerm;35474;51.032;6.998;2023-06-22T10:20:55;61.31;49.45;79.53;;
49568;Laerm;35474;51.032;6.998;2023-06-22T10:23:21;63.49;53.30;79.04;;
49568;Laerm;35474;51.032;6.998;2023-06-22T10:25:48;61.90;53.25;80.32;;
49568;Laerm;35474;51.032;6.998;2023-06-22T10:28:15;61.94;47.10;72.89;;
49568;Laerm;35474;51.032;6.998;2023-06-22T10:30:42;61.03;48.54;68.07;;
49568;Laerm;35474;51.032;6.998;2023-06-22T10:33:12;59.63;48.66;74.27;;
49568;Laerm;35474;51.032;6.998;2023-06-22T10:35:38;61.82;49.55;76.33;;
49568;Laerm;35474;51.032;6.998;2023-06-22T10:38:05;61.01;49.49;69.60;;
49568;Laerm;35474;51.032;6.998;2023-06-22T10:40:32;61.30;49.55;67.70;;
49568;Laerm;35474;51.032;6.998;2023-06-22T10:42:59;60.88;50.84;70.43;;
49568;Laerm;35474;51.032;6.998;2023-06-22T10:45:26;60.80;50.62;75.50;;
49568;Laerm;35474;51.032;6.998;2023-06-22T10:47:54;61.92;49.51;71.46;;
49568;Laerm;35474;51.032;6.998;2023-06-22T10:50:21;61.64;51.62;75.88;;
49568;Laerm;35474;51.032;6.998;2023-06-22T10:52:50;64.85;56.68;85.75;;
49568;Laerm;35474;51.032;6.998;2023-06-22T10:55:17;68.65;59.49;92.89;;
49568;Laerm;35474;51.032;6.998;2023-06-22T10:57:43;68.25;54.85;89.33;;
49568;Laerm;35474;51.032;6.998;2023-06-22T11:00:14;67.34;56.84;83.11;;
49568;Laerm;35474;51.032;6.998;2023-06-22T11:02:42;66.49;55.85;79.68;;
49568;Laerm;35474;51.032;6.998;2023-06-22T11:05:09;67.38;54.57;90.40;;
49568;Laerm;35474;51.032;6.998;2023-06-22T11:07:37;66.39;54.57;74.56;;
49568;Laerm;35474;51.032;6.998;2023-06-22T11:10:10;66.46;53.65;80.57;;
49568;Laerm;35474;51.032;6.998;2023-06-22T11:12:37;64.51;53.01;75.46;;
49568;Laerm;35474;51.032;6.998;2023-06-22T11:15:04;64.18;51.77;72.93;;
49568;Laerm;35474;51.032;6.998;2023-06-22T11:17:31;63.80;50.57;72.64;;
49568;Laerm;35474;51.032;6.998;2023-06-22T11:19:58;64.38;51.15;79.34;;
49568;Laerm;35474;51.032;6.998;2023-06-22T11:22:26;64.90;54.51;75.69;;
49568;Laerm;35474;51.032;6.998;2023-06-22T11:24:53;65.80;54.16;74.56;;
49568;Laerm;35474;51.032;6.998;2023-06-22T11:27:19;65.67;53.17;71.71;;
49568;Laerm;35474;51.032;6.998;2023-06-22T11:29:46;65.67;53.45;77.75;;
49568;Laerm;35474;51.032;6.998;2023-06-22T11:32:12;66.16;55.23;77.12;;
49568;Laerm;35474;51.032;6.998;2023-06-22T11:34:40;66.56;52.85;79.56;;
49568;Laerm;35474;51.032;6.998;2023-06-22T11:37:07;63.75;54.63;71.95;;
49568;Laerm;35474;51.032;6.998;2023-06-22T11:39:33;64.40;54.79;69.10;;
49568;Laerm;35474;51.032;6.998;2023-06-22T11:42:13;65.30;52.29;78.31;;
49568;Laerm;35474;51.032;6.998;2023-06-22T11:44:40;66.84;52.12;91.51;;
49568;Laerm;35474;51.032;6.998;2023-06-22T11:47:06;65.80;53.52;85.27;;
49568;Laerm;35474;51.032;6.998;2023-06-22T11:49:33;67.81;53.30;94.93;;
49568;Laerm;35474;51.032;6.998;2023-06-22T11:52:00;65.83;55.97;88.42;;
49568;Laerm;35474;51.032;6.998;2023-06-22T11:54:26;63.18;52.17;79.85;;
49568;Laerm;35474;51.032;6.998;2023-06-22T11:56:53;63.41;52.54;78.33;;
49568;Laerm;35474;51.032;6.998;2023-06-22T11:59:19;68.86;55.69;85.95;;
49568;Laerm;35474;51.032;6.998;2023-06-22T12:01:48;68.51;57.72;84.18;;
49568;Laerm;35474;51.032;6.998;2023-06-22T12:04:17;63.82;48.81;71.01;;
49568;Laerm;35474;51.032;6.998;2023-06-22T12:06:44;68.06;50.79;79.66;;
49568;Laerm;35474;51.032;6.998;2023-06-22T12:09:10;62.89;47.02;86.07;;
49568;Laerm;35474;51.032;6.998;2023-06-22T12:11:39;65.37;50.82;80.13;;
49568;Laerm;35474;51.032;6.998;2023-06-22T12:14:06;68.87;52.35;84.22;;
49568;Laerm;35474;51.032;6.998;2023-06-22T12:16:33;64.43;49.19;80.01;;
49568;Laerm;35474;51.032;6.998;2023-06-22T12:18:59;67.37;58.21;81.53;;
49568;Laerm;35474;51.032;6.998;2023-06-22T12:21:26;70.73;60.22;84.86;;
49568;Laerm;35474;51.032;6.998;2023-06-22T12:23:52;72.18;64.76;86.17;;
49568;Laerm;35474;51.032;6.998;2023-06-22T12:26:19;70.50;61.67;85.50;;
49568;Laerm;35474;51.032;6.998;2023-06-22T12:28:47;70.94;63.11;87.40;;
49568;Laerm;35474;51.032;6.998;2023-06-22T12:31:14;68.06;54.26;83.42;;
49568;Laerm;35474;51.032;6.998;2023-06-22T12:33:41;63.42;48.28;80.60;;
49568;Laerm;35474;51.032;6.998;2023-06-22T12:36:08;63.10;49.23;82.14;;
49568;Laerm;35474;51.032;6.998;2023-06-22T12:38:35;63.16;45.01;74.16;;
49568;Laerm;35474;51.032;6.998;2023-06-22T12:41:01;61.61;53.24;71.82;;
49568;Laerm;35474;51.032;6.998;2023-06-22T12:43:28;62.80;43.34;71.39;;
49568;Laerm;35474;51.032;6.998;2023-06-22T12:45:55;62.62;43.49;68.92;;
49568;Laerm;35474;51.032;6.998;2023-06-22T12:48:22;62.62;48.46;70.95;;
49568;Laerm;35474;51.032;6.998;2023-06-22T12:50:49;63.20;54.04;74.93;;
49568;Laerm;35474;51.032;6.998;2023-06-22T12:53:15;61.48;51.61;69.94;;
49568;Laerm;35474;51.032;6.998;2023-06-22T12:55:43;61.79;47.55;70.28;;
49568;Laerm;35474;51.032;6.998;2023-06-22T12:58:10;61.96;46.64;69.70;;
49568;Laerm;35474;51.032;6.998;2023-06-22T13:00:38;61.06;49.18;68.89;;
49568;Laerm;35474;51.032;6.998;2023-06-22T13:03:05;63.06;50.40;73.50;;
49568;Laerm;35474;51.032;6.998;2023-06-22T13:05:32;64.03;51.62;72.91;;
49568;Laerm;35474;51.032;6.998;2023-06-22T13:08:01;60.40;44.51;67.48;;
49568;Laerm;35474;51.032;6.998;2023-06-22T13:10:29;62.69;47.00;73.47;;
49568;Laerm;35474;51.032;6.998;2023-06-22T13:12:56;62.29;46.71;75.02;;
49568;Laerm;35474;51.032;6.998;2023-06-22T13:15:30;62.42;45.75;73.30;;
49568;Laerm;35474;51.032;6.998;2023-06-22T13:17:57;62.54;53.49;71.50;;
49568;Laerm;35474;51.032;6.998;2023-06-22T13:20:23;62.42;51.60;73.66;;
49568;Laerm;35474;51.032;6.998;2023-06-22T13:22:50;62.95;47.28;70.26;;
49568;Laerm;35474;51.032;6.998;2023-06-22T13:25:17;61.67;51.70;69.01;;
49568;Laerm;35474;51.032;6.998;2023-06-22T13:27:45;62.65;53.02;67.50;;
49568;Laerm;35474;51.032;6.998;2023-06-22T13:30:12;62.29;49.35;77.09;;
49568;Laerm;35474;51.032;6.998;2023-06-22T13:32:41;61.82;50.35;71.71;;
49568;Laerm;35474;51.032;6.998;2023-06-22T13:35:09;62.07;49.27;74.23;;
49568;Laerm;35474;51.032;6.998;2023-06-22T13:37:37;61.91;46.07;75.36;;
49568;Laerm;35474;51.032;6.998;2023-06-22T13:40:08;61.70;45.48;70.19;;
49568;Laerm;35474;51.032;6.998;2023-06-22T13:42:34;62.85;49.69;75.20;;
49568;Laerm;35474;51.032;6.998;2023-06-22T13:45:01;64.47;54.35;85.58;;
49568;Laerm;35474;51.032;6.998;2023-06-22T13:47:29;61.21;50.80;74.91;;
49568;Laerm;35474;51.032;6.998;2023-06-22T13:49:57;63.18;45.86;81.95;;
49568;Laerm;35474;51.032;6.998;2023-06-22T13:52:24;64.16;50.59;81.70;;
49568;Laerm;35474;51.032;6.998;2023-06-22T13:54:51;62.99;53.52;73.67;;
49568;Laerm;35474;51.032;6.998;2023-06-22T13:57:18;62.45;51.97;72.17;;
49568;Laerm;35474;51.032;6.998;2023-06-22T13:59:44;61.99;48.51;68.13;;